Time;durP1;ratioP1;P1;durP2;ratioP2;P2;SDS_P1;SDS_P2;PMS_P1;PMS_P2;Temp;Humidity;BMP_temperature;BMP_pressure;BME280_temperature;BME280_humidity;BME280_pressure;Samples;Min_cycle;Max_cycle;Signal;HPM_P1;HPM_P2
2022/10/22 00:00:44;;;;;;;4.07;1.67;;;;;;;14.68;90.87;100894.88;5032408;27;96848;-30
2022/10/22 00:03:10;;;;;;;8.23;2.08;;;;;;;14.68;90.79;100894.00;5032458;27;97872;-29
2022/10/22 00:05:35;;;;;;;5.80;1.95;;;;;;;14.66;90.77;100885.97;5031903;27;106690;-29
2022/10/22 00:08:00;;;;;;;3.25;1.58;;;;;;;14.67;90.91;100895.88;5031806;28;96940;-30
2022/10/22 00:10:26;;;;;;;4.70;2.15;;;;;;;14.64;91.33;100896.13;5032242;27;96839;-30
2022/10/22 00:12:51;;;;;;;3.95;1.58;;;;;;;14.62;91.42;100895.38;5031961;27;99308;-30
2022/10/22 00:15:16;;;;;;;3.92;1.60;;;;;;;14.60;91.05;100895.47;5031581;27;98738;-31
2022/10/22 00:17:42;;;;;;;19.92;2.22;;;;;;;14.60;91.30;100895.47;5032262;27;96490;-30
2022/10/22 00:20:08;;;;;;;4.95;1.65;;;;;;;14.58;91.59;100900.19;5032280;27;96770;-30
2022/10/22 00:22:33;;;;;;;5.03;1.65;;;;;;;14.56;91.41;100899.47;5031756;28;99022;-31
2022/10/22 00:24:58;;;;;;;8.45;1.85;;;;;;;14.58;91.66;100902.03;5032156;27;102005;-29
2022/10/22 00:27:24;;;;;;;6.30;2.20;;;;;;;14.57;91.46;100909.34;5031612;28;105044;-31
2022/10/22 00:29:49;;;;;;;4.55;1.90;;;;;;;14.55;91.25;100910.47;5031884;27;96903;-29
2022/10/22 00:32:15;;;;;;;5.57;1.95;;;;;;;14.52;91.72;100905.22;5031322;28;99301;-29
2022/10/22 00:34:40;;;;;;;4.78;1.63;;;;;;;14.54;91.97;100912.34;5031884;27;99174;-29
2022/10/22 00:37:06;;;;;;;7.80;2.10;;;;;;;14.54;91.88;100905.97;5032037;27;96474;-30
2022/10/22 00:39:31;;;;;;;5.10;1.90;;;;;;;14.55;91.57;100910.47;5031889;27;96726;-29
2022/10/22 00:41:57;;;;;;;2.40;1.40;;;;;;;14.55;91.71;100907.75;5031789;28;97445;-31
2022/10/22 00:45:00;;;;;;;5.75;1.95;;;;;;;14.55;91.83;100910.47;5030077;28;100947;-31
2022/10/22 00:47:29;;;;;;;6.05;1.65;;;;;;;14.53;91.62;100910.53;5031580;28;96555;-29
2022/10/22 00:49:55;;;;;;;3.30;1.60;;;;;;;14.51;92.11;100917.09;5030307;28;96890;-29
2022/10/22 00:52:21;;;;;;;3.78;1.42;;;;;;;14.52;91.97;100914.28;5030337;28;100880;-30
2022/10/22 00:54:47;;;;;;;6.20;1.80;;;;;;;14.54;91.85;100917.78;5029723;28;100927;-31
2022/10/22 00:57:14;;;;;;;3.30;1.58;;;;;;;14.54;91.88;100916.88;5031181;28;96533;-30
2022/10/22 00:59:39;;;;;;;2.53;1.33;;;;;;;14.52;91.66;100910.69;5030324;28;96822;-30
2022/10/22 01:02:05;;;;;;;3.20;1.30;;;;;;;14.52;91.64;100913.41;5031982;27;96756;-30
2022/10/22 01:04:30;;;;;;;3.95;1.83;;;;;;;14.54;91.88;100908.72;5030990;28;113895;-29
2022/10/22 01:06:55;;;;;;;4.80;1.30;;;;;;;14.53;91.83;100909.69;5031705;27;96548;-29
2022/10/22 01:09:40;;;;;;;6.00;1.98;;;;;;;14.54;91.40;100904.16;5035056;27;96849;-31
2022/10/22 01:12:23;;;;;;;6.82;1.52;;;;;;;14.54;91.68;100922.34;5033622;28;101372;-30
2022/10/22 01:15:13;;;;;;;2.63;1.27;;;;;;;14.56;91.45;100925.81;5033536;28;99355;-29
2022/10/22 01:17:59;;;;;;;2.88;1.50;;;;;;;14.54;91.59;100928.69;5035241;28;96578;-30
2022/10/22 01:20:54;;;;;;;7.57;2.03;;;;;;;14.57;91.27;100941.22;5033503;28;96787;-29
2022/10/22 01:24:03;;;;;;;5.38;2.00;;;;;;;14.57;91.26;100941.22;5032968;28;101187;-30
2022/10/22 01:27:02;;;;;;;4.40;1.90;;;;;;;14.57;91.14;100943.94;5033418;28;101108;-30
2022/10/22 01:29:56;;;;;;;3.67;1.40;;;;;;;14.57;91.27;100933.03;5035044;28;96470;-29
2022/10/22 01:32:25;;;;;;;3.25;1.17;;;;;;;14.54;91.28;100934.13;5034710;27;96484;-29
2022/10/22 01:34:59;;;;;;;5.80;1.35;;;;;;;14.56;91.27;100934.00;5033059;28;101498;-29
2022/10/22 01:37:29;;;;;;;6.03;1.55;;;;;;;14.57;91.07;100938.47;5033236;28;100823;-29
2022/10/22 01:39:58;;;;;;;3.72;1.45;;;;;;;14.56;91.28;100931.28;5033301;28;96596;-29
2022/10/22 01:42:23;;;;;;;4.78;1.50;;;;;;;14.56;90.94;100929.44;5033414;28;96828;-29
2022/10/22 01:44:49;;;;;;;5.93;1.60;;;;;;;14.54;91.04;100934.13;5034214;27;97908;-29
2022/10/22 01:47:36;;;;;;;3.90;1.50;;;;;;;14.54;91.42;100920.50;5034241;27;99207;-30
2022/10/22 01:50:36;;;;;;;5.40;1.80;;;;;;;14.53;91.42;100926.03;5033646;28;96866;-29
2022/10/22 01:53:16;;;;;;;5.20;1.60;;;;;;;14.49;91.22;100919.97;5034170;27;96671;-30
2022/10/22 01:55:41;;;;;;;11.77;2.00;;;;;;;14.51;90.99;100917.09;5034480;27;97435;-29
2022/10/22 01:58:13;;;;;;;6.50;1.70;;;;;;;14.52;90.81;100922.44;5033972;28;104053;-29
2022/10/22 02:00:44;;;;;;;;;;;;;;;14.54;90.64;100925.06;5034445;27;96684;-30
2022/10/22 02:03:17;;;;;;;4.47;1.17;;;;;;;14.53;90.59;100924.16;5034416;28;96490;-30
2022/10/22 02:05:50;;;;;;;6.20;1.52;;;;;;;14.52;90.74;100921.59;5032314;28;101178;-30
2022/10/22 02:08:26;;;;;;;5.95;1.60;;;;;;;14.51;90.59;100925.28;5033066;28;101404;-31
2022/10/22 02:10:53;;;;;;;3.15;1.48;;;;;;;14.50;90.55;100927.13;5032782;28;96702;-29
2022/10/22 02:13:29;;;;;;;3.83;1.67;;;;;;;14.49;90.63;100924.53;5034102;27;97008;-29
2022/10/22 02:15:56;;;;;;;7.38;2.22;;;;;;;14.50;90.64;100931.72;5031821;28;100826;-30
2022/10/22 02:18:27;;;;;;;2.55;1.25;;;;;;;14.48;90.78;100920.06;5031958;27;101458;-30
2022/10/22 02:20:53;;;;;;;3.97;1.55;;;;;;;14.50;90.69;100934.47;5032540;28;96625;-30
2022/10/22 02:23:19;;;;;;;7.22;1.80;;;;;;;14.48;90.47;100922.78;5032586;28;96879;-30
2022/10/22 02:25:52;;;;;;;4.22;1.60;;;;;;;14.49;90.64;100919.97;5032301;28;100106;-29
2022/10/22 02:29:07;;;;;;;3.97;1.85;;;;;;;14.52;90.43;100929.75;5032319;28;101335;-29
2022/10/22 02:31:36;;;;;;;5.43;1.73;;;;;;;14.48;90.43;100922.78;5006402;27;96777;-29
2022/10/22 02:34:07;;;;;;;3.22;1.38;;;;;;;14.49;90.58;100924.53;5032797;28;97030;-29
2022/10/22 02:36:33;;;;;;;5.70;2.00;;;;;;;14.47;90.58;100927.38;5032186;28;100806;-29
2022/10/22 02:39:00;;;;;;;10.20;1.50;;;;;;;14.43;90.69;100929.47;5032056;27;100803;-29
2022/10/22 02:41:25;;;;;;;5.53;1.25;;;;;;;14.45;90.59;100930.22;5033249;27;97334;-30
2022/10/22 02:43:53;;;;;;;5.80;1.48;;;;;;;14.45;90.81;100932.09;5033803;28;96838;-29
2022/10/22 02:46:19;;;;;;;6.97;1.63;;;;;;;14.46;90.62;100933.81;5031888;27;100832;-30
2022/10/22 02:48:44;;;;;;;3.05;1.33;;;;;;;14.43;90.57;100923.16;5033147;27;97880;-29
2022/10/22 02:51:10;;;;;;;4.43;1.40;;;;;;;14.42;90.73;100925.00;5032986;27;111217;-30
2022/10/22 02:53:35;;;;;;;5.50;1.50;;;;;;;14.41;90.82;100916.94;5032772;27;106542;-29
2022/10/22 02:56:00;;;;;;;6.90;1.52;;;;;;;14.41;90.82;100925.13;5032689;28;121169;-30
2022/10/22 02:58:25;;;;;;;4.70;1.15;;;;;;;14.42;90.92;100925.00;5033773;27;97801;-29
2022/10/22 03:00:51;;;;;;;3.40;1.30;;;;;;;14.42;90.71;100925.00;5033553;27;96543;-29
2022/10/22 03:03:16;;;;;;;7.50;1.63;;;;;;;14.41;90.80;100930.56;5032970;27;101571;-30
2022/10/22 03:05:41;;;;;;;5.72;1.05;;;;;;;14.39;90.74;100925.22;5032783;27;97195;-29
2022/10/22 03:08:07;;;;;;;3.28;1.38;;;;;;;14.37;90.87;100929.94;5032328;28;114780;-30
2022/10/22 03:10:32;;;;;;;3.35;1.42;;;;;;;14.38;90.83;100928.94;5033468;27;96582;-30
2022/10/22 03:12:57;;;;;;;4.45;1.13;;;;;;;14.40;90.81;100940.59;5032438;28;116337;-29
2022/10/22 03:15:22;;;;;;;3.45;1.40;;;;;;;14.37;90.94;100931.78;5032547;27;99750;-29
2022/10/22 03:17:48;;;;;;;7.97;1.77;;;;;;;14.37;90.70;100937.22;5032908;27;97681;-30
2022/10/22 03:20:13;;;;;;;4.03;1.50;;;;;;;14.37;90.62;100938.13;5033182;27;96515;-29
2022/10/22 03:22:41;;;;;;;2.92;1.50;;;;;;;14.38;90.82;100937.13;5033326;27;96803;-30
2022/10/22 03:25:12;;;;;;;5.70;1.50;;;;;;;14.39;90.71;100952.47;5031241;28;100844;-29
2022/10/22 03:27:39;;;;;;;6.13;1.15;;;;;;;14.36;90.58;100936.38;5031461;28;99650;-29
2022/10/22 03:30:05;;;;;;;8.65;1.58;;;;;;;14.38;90.75;100945.31;5030301;27;96864;-30
2022/10/22 03:32:31;;;;;;;2.00;1.38;;;;;;;14.37;90.69;100942.69;5031483;28;97377;-29
2022/10/22 03:34:56;;;;;;;9.80;1.58;;;;;;;14.38;90.51;100939.84;5031154;28;98045;-31
2022/10/22 03:37:23;;;;;;;3.83;1.52;;;;;;;14.39;90.48;100946.16;5032536;28;98113;-32
2022/10/22 03:39:48;;;;;;;3.88;1.23;;;;;;;14.38;90.63;100952.63;5031462;28;96652;-29
2022/10/22 03:42:15;;;;;;;4.68;1.38;;;;;;;14.37;90.58;100957.19;5032762;27;96883;-28
2022/10/22 03:44:40;;;;;;;3.47;1.48;;;;;;;14.36;90.67;100957.31;5031015;28;101036;-29
2022/10/22 03:47:06;;;;;;;6.22;1.55;;;;;;;14.35;90.68;100955.53;5033059;27;97248;-30
2022/10/22 03:49:32;;;;;;;6.60;1.60;;;;;;;14.35;90.66;100961.91;5030533;28;96826;-29
2022/10/22 03:52:04;;;;;;;3.10;1.40;;;;;;;14.34;90.77;100951.09;5032032;28;112063;-29
2022/10/22 03:54:29;;;;;;;3.05;1.45;;;;;;;14.37;90.59;100959.03;5030668;28;99259;-30
2022/10/22 03:56:55;;;;;;;4.82;1.58;;;;;;;14.37;90.69;100953.56;5031646;28;124144;-31
2022/10/22 03:59:20;;;;;;;5.28;1.80;;;;;;;14.38;90.55;100956.19;5032238;27;96566;-29
2022/10/22 04:01:45;;;;;;;10.07;1.65;;;;;;;14.39;90.47;100959.78;5032326;28;101949;-29
2022/10/22 04:04:11;;;;;;;2.65;1.15;;;;;;;14.37;90.44;100965.38;5031483;28;116572;-29
2022/10/22 04:06:36;;;;;;;10.18;1.48;;;;;;;14.38;90.33;100964.38;5032153;27;106356;-29
2022/10/22 04:09:01;;;;;;;6.13;1.67;;;;;;;14.37;90.72;100965.38;5031683;28;114518;-31
2022/10/22 04:11:26;;;;;;;12.43;1.67;;;;;;;14.33;90.56;100960.28;5032899;27;96888;-29
2022/10/22 04:13:52;;;;;;;3.53;1.48;;;;;;;14.35;91.05;100959.16;5032106;27;106988;-30
2022/10/22 04:16:19;;;;;;;4.07;1.33;;;;;;;14.35;90.41;100970.06;5030945;28;122292;-29
2022/10/22 04:18:47;;;;;;;8.77;1.63;;;;;;;14.36;90.59;100963.63;5030234;28;97184;-29
2022/10/22 04:21:14;;;;;;;4.78;2.15;;;;;;;14.34;90.50;100960.13;5030513;28;96991;-29
2022/10/22 04:23:44;;;;;;;3.47;2.17;;;;;;;14.35;90.72;100967.34;5030611;28;100813;-29
2022/10/22 04:26:10;;;;;;;2.17;1.15;;;;;;;14.35;90.65;100972.78;5030514;28;100823;-29
2022/10/22 04:28:35;;;;;;;6.85;1.65;;;;;;;14.35;90.52;100969.16;5031288;27;116126;-29
2022/10/22 04:31:07;;;;;;;4.28;1.48;;;;;;;14.34;90.35;100976.47;5032297;28;96930;-30
2022/10/22 04:33:32;;;;;;;5.30;1.05;;;;;;;14.31;90.66;100974.00;5030268;28;100815;-29
2022/10/22 04:35:57;;;;;;;1.75;1.08;;;;;;;14.32;90.68;100966.69;5031690;28;114384;-29
2022/10/22 04:38:23;;;;;;;4.85;1.50;;;;;;;14.29;90.84;100969.66;5030390;28;104094;-29
2022/10/22 04:40:48;;;;;;;3.95;1.15;;;;;;;14.28;90.67;100974.25;5031541;28;109085;-29
2022/10/22 04:43:13;;;;;;;4.35;1.20;;;;;;;14.26;90.95;100984.38;5032362;28;121990;-28
2022/10/22 04:45:38;;;;;;;2.85;1.48;;;;;;;14.24;90.90;100975.44;5034779;28;112191;-29
2022/10/22 04:48:04;;;;;;;4.57;1.08;;;;;;;14.23;90.94;100980.03;5033970;28;114510;-29
2022/10/22 04:50:29;;;;;;;3.28;1.27;;;;;;;14.21;90.71;100992.91;5034082;28;96752;-29
2022/10/22 04:52:55;;;;;;;4.07;1.35;;;;;;;14.22;90.74;100988.31;5034640;27;115315;-29
2022/10/22 04:55:20;;;;;;;5.15;1.38;;;;;;;14.21;90.96;100992.03;5034816;27;102423;-29
2022/10/22 04:57:45;;;;;;;5.05;1.40;;;;;;;14.21;90.62;100997.47;5033816;28;96562;-29
2022/10/22 05:00:11;;;;;;;6.78;1.80;;;;;;;14.19;90.84;101000.31;5035799;28;96929;-29
2022/10/22 05:02:37;;;;;;;7.43;1.55;;;;;;;14.16;90.98;100995.09;5034821;28;99230;-29
2022/10/22 05:05:03;;;;;;;8.57;1.27;;;;;;;14.15;90.85;100998.78;5034978;27;97783;-31
2022/10/22 05:07:28;;;;;;;6.15;1.48;;;;;;;14.13;91.04;100992.56;5033103;28;97688;-29
2022/10/22 05:09:54;;;;;;;3.85;1.17;;;;;;;14.14;90.83;100997.06;5035298;27;96855;-30
2022/10/22 05:12:19;;;;;;;7.40;1.83;;;;;;;14.11;90.85;100991.84;5033700;28;98777;-29
2022/10/22 05:14:44;;;;;;;5.75;1.05;;;;;;;14.10;91.06;101006.44;5033956;28;123924;-29
2022/10/22 05:17:10;;;;;;;2.47;1.23;;;;;;;14.09;91.22;101003.84;5034644;27;106297;-29
2022/10/22 05:19:35;;;;;;;6.18;1.33;;;;;;;14.07;90.86;101005.81;5034799;27;96801;-30
2022/10/22 05:22:03;;;;;;;8.60;1.65;;;;;;;14.06;90.95;100998.59;5034947;27;97982;-30
2022/10/22 05:24:30;;;;;;;4.30;1.27;;;;;;;14.05;91.05;100997.75;5033526;28;98864;-29
2022/10/22 05:26:57;;;;;;;1.88;1.13;;;;;;;14.07;91.05;101000.34;5033538;28;96568;-30
2022/10/22 05:29:23;;;;;;;3.25;1.23;;;;;;;14.06;91.20;101006.78;5034804;27;96852;-30
2022/10/22 05:31:49;;;;;;;9.35;1.80;;;;;;;14.05;91.00;101003.19;5033864;28;99301;-29
2022/10/22 05:34:14;;;;;;;6.13;1.33;;;;;;;14.01;91.33;101002.56;5033218;28;100952;-29
2022/10/22 05:36:40;;;;;;;3.00;1.40;;;;;;;14.00;91.32;101003.53;5034199;27;109136;-30
2022/10/22 05:39:06;;;;;;;3.72;1.60;;;;;;;13.99;91.34;101009.97;5034871;28;96806;-30
2022/10/22 05:41:32;;;;;;;3.35;1.25;;;;;;;13.97;91.54;101014.66;5034418;27;98917;-29
2022/10/22 05:43:59;;;;;;;7.05;1.50;;;;;;;13.96;91.43;101009.31;5033015;28;100639;-30
2022/10/22 05:46:27;;;;;;;4.78;1.77;;;;;;;13.97;91.25;101014.66;5032886;28;96587;-29
2022/10/22 05:48:56;;;;;;;3.08;1.27;;;;;;;13.96;91.55;101021.06;5032730;28;96897;-30
2022/10/22 05:51:23;;;;;;;11.82;1.52;;;;;;;13.97;91.28;101011.06;5032978;28;100834;-29
2022/10/22 05:53:54;;;;;;;2.67;0.82;;;;;;;13.98;91.34;101024.56;5033610;27;99145;-29
2022/10/22 05:56:20;;;;;;;6.70;1.60;;;;;;;13.99;91.18;101034.47;5032362;28;97202;-29
2022/10/22 05:58:45;;;;;;;4.97;1.40;;;;;;;14.00;91.32;101032.63;5032913;28;96823;-31
2022/10/22 06:01:19;;;;;;;5.85;1.30;;;;;;;13.99;91.39;101037.19;5033878;27;99224;-29
2022/10/22 06:03:46;;;;;;;6.78;1.00;;;;;;;14.01;91.32;101047.97;5032823;28;100883;-29
2022/10/22 06:06:18;;;;;;;3.33;1.23;;;;;;;14.00;91.38;101040.78;5032678;28;98412;-30
2022/10/22 06:08:47;;;;;;;1.35;0.85;;;;;;;13.97;91.30;101050.06;5032792;28;96785;-30
2022/10/22 06:11:12;;;;;;;5.70;1.48;;;;;;;14.00;91.12;101055.28;5032505;28;101106;-29
2022/10/22 06:13:38;;;;;;;6.50;1.50;;;;;;;14.01;91.08;101050.69;5034191;27;97727;-29
2022/10/22 06:16:03;;;;;;;5.70;1.38;;;;;;;14.03;91.06;101057.75;5033804;28;96518;-29
2022/10/22 06:18:28;;;;;;;5.32;1.50;;;;;;;14.03;91.25;101056.91;5034033;27;96812;-30
2022/10/22 06:20:54;;;;;;;14.82;1.63;;;;;;;14.06;90.97;101069.44;5033097;27;99077;-30
2022/10/22 06:23:19;;;;;;;6.70;1.70;;;;;;;14.02;91.15;101064.22;5034000;27;97268;-29
2022/10/22 06:25:55;;;;;;;1.85;0.93;;;;;;;14.06;91.14;101066.69;5034048;27;96501;-28
2022/10/22 06:28:20;;;;;;;14.70;1.92;;;;;;;14.07;91.04;101071.19;5032790;28;96752;-29
2022/10/22 06:30:46;;;;;;;8.50;1.52;;;;;;;14.10;90.93;101076.41;5033675;28;108161;-30
2022/10/22 06:33:11;;;;;;;2.53;1.02;;;;;;;14.10;91.19;101080.00;5033104;28;116825;-29
2022/10/22 06:35:36;;;;;;;2.95;0.90;;;;;;;14.11;90.74;101079.03;5033787;27;96574;-30
2022/10/22 06:38:01;;;;;;;5.65;1.52;;;;;;;14.15;90.94;101079.66;5034126;27;102296;-30
2022/10/22 06:40:27;;;;;;;3.10;1.27;;;;;;;14.16;90.89;101075.97;5033340;28;108171;-31
2022/10/22 06:42:52;;;;;;;5.40;1.27;;;;;;;14.18;90.58;101080.31;5033085;27;99132;-29
2022/10/22 06:45:17;;;;;;;11.75;1.30;;;;;;;14.17;90.65;101077.69;5033002;28;100011;-31
2022/10/22 06:47:43;;;;;;;4.80;1.08;;;;;;;14.19;90.79;101086.63;5033517;27;96832;-29
2022/10/22 06:50:08;;;;;;;3.97;0.93;;;;;;;14.20;90.61;101096.53;5032994;28;97964;-29
2022/10/22 06:52:34;;;;;;;4.25;0.77;;;;;;;14.22;90.75;101094.56;5033849;28;97406;-29
2022/10/22 06:54:59;;;;;;;2.65;0.77;;;;;;;14.23;90.79;101096.34;5033428;27;96532;-30
2022/10/22 06:57:24;;;;;;;4.53;1.45;;;;;;;14.22;90.78;101100.88;5033247;28;96794;-29
2022/10/22 06:59:50;;;;;;;7.25;1.15;;;;;;;14.23;90.38;101097.19;5033095;27;103772;-29
2022/10/22 07:02:15;;;;;;;5.65;1.30;;;;;;;14.29;90.63;101108.63;5033344;27;105689;-29
2022/10/22 07:04:40;;;;;;;4.10;1.33;;;;;;;14.31;90.53;101112.97;5033020;27;96587;-28
2022/10/22 07:07:06;;;;;;;15.55;1.55;;;;;;;14.34;90.71;101129.09;5032507;28;110279;-28
2022/10/22 07:09:31;;;;;;;7.07;0.98;;;;;;;14.38;90.66;101130.63;5032882;28;97476;-29
2022/10/22 07:11:56;;;;;;;4.90;0.90;;;;;;;14.40;90.46;101128.66;5032610;28;103345;-29
2022/10/22 07:14:22;;;;;;;5.93;1.05;;;;;;;14.43;90.38;101131.16;5032606;28;106143;-30
2022/10/22 07:16:47;;;;;;;10.40;1.10;;;;;;;14.43;90.32;101127.56;5032904;27;98465;-29
2022/10/22 07:19:13;;;;;;;8.55;1.20;;;;;;;14.49;90.31;101142.59;5033099;27;97897;-30
2022/10/22 07:21:38;;;;;;;2.05;0.75;;;;;;;14.50;90.24;101138.88;5031434;28;100789;-29
2022/10/22 07:24:04;;;;;;;6.20;1.23;;;;;;;14.52;90.09;101150.56;5033060;28;96573;-29
2022/10/22 07:26:31;;;;;;;4.43;0.82;;;;;;;14.54;90.11;101162.22;5032857;27;96482;-29
2022/10/22 07:28:58;;;;;;;5.18;1.10;;;;;;;14.49;90.18;101158.94;5031270;28;100917;-29
2022/10/22 07:31:23;;;;;;;3.55;1.00;;;;;;;14.52;90.28;101166.91;5032472;28;99159;-30
2022/10/22 07:33:48;;;;;;;3.97;0.98;;;;;;;14.52;90.14;101158.72;5032326;27;97865;-29
2022/10/22 07:36:18;;;;;;;11.00;1.65;;;;;;;14.55;89.92;101169.44;5032374;27;109005;-29
2022/10/22 07:38:52;;;;;;;6.40;1.13;;;;;;;14.56;90.07;101172.06;5032463;28;98984;-29
2022/10/22 07:41:17;;;;;;;1.63;0.73;;;;;;;14.59;90.10;101174.56;5031119;28;101484;-30
2022/10/22 07:43:43;;;;;;;4.97;0.80;;;;;;;14.60;89.87;101176.28;5031318;28;96567;-29
2022/10/22 07:46:08;;;;;;;3.63;0.70;;;;;;;14.65;89.74;101186.84;5032607;27;96642;-29
2022/10/22 07:48:35;;;;;;;4.25;0.88;;;;;;;14.64;89.90;101185.13;5031586;27;99215;-30
2022/10/22 07:51:01;;;;;;;2.90;0.90;;;;;;;14.67;89.86;101189.47;5031269;28;100927;-29
2022/10/22 07:53:26;;;;;;;6.68;0.98;;;;;;;14.70;89.93;101189.25;5031112;28;96615;-30
2022/10/22 07:55:53;;;;;;;6.53;1.90;;;;;;;14.73;90.04;101198.09;5032514;27;96696;-29
2022/10/22 07:58:20;;;;;;;4.97;0.82;;;;;;;14.76;89.70;101197.00;5030506;28;100845;-29
2022/10/22 08:00:46;;;;;;;7.38;0.98;;;;;;;14.77;89.59;101202.31;5030991;28;100407;-29
2022/10/22 08:03:14;;;;;;;0.80;0.50;;;;;;;14.79;89.68;101205.81;5030984;28;96736;-29
2022/10/22 08:05:42;;;;;;;2.75;0.68;;;;;;;14.84;89.80;101213.66;5031000;28;96831;-30
2022/10/22 08:08:08;;;;;;;4.70;1.00;;;;;;;14.88;89.63;101215.16;5030603;28;101013;-29
2022/10/22 08:10:33;;;;;;;2.45;0.68;;;;;;;14.94;89.51;101230.19;5030757;28;100736;-29
2022/10/22 08:12:59;;;;;;;5.00;1.10;;;;;;;14.96;89.65;101225.50;5032077;27;96492;-29
2022/10/22 08:15:26;;;;;;;3.13;0.60;;;;;;;14.98;89.36;101237.19;5032362;27;96912;-29
2022/10/22 08:17:51;;;;;;;4.60;1.15;;;;;;;14.98;89.47;101237.19;5030423;28;101223;-29
2022/10/22 08:20:17;;;;;;;4.65;2.33;;;;;;;15.01;89.66;101237.81;5030569;28;101262;-29
2022/10/22 08:22:43;;;;;;;5.85;1.48;;;;;;;15.02;89.36;101244.16;5031631;28;96605;-31
2022/10/22 08:25:08;;;;;;;5.90;1.30;;;;;;;14.99;89.48;101237.09;5032020;27;96857;-30
2022/10/22 08:27:34;;;;;;;3.65;1.23;;;;;;;15.03;89.22;101256.81;5031984;28;98011;-29
2022/10/22 08:29:59;;;;;;;5.28;0.98;;;;;;;15.03;89.73;101259.53;5031767;27;99132;-30
2022/10/22 08:32:25;;;;;;;3.42;0.63;;;;;;;15.00;89.13;101254.31;5031921;27;96512;-30
2022/10/22 08:34:50;;;;;;;13.05;1.30;;;;;;;15.02;89.18;101260.53;5032186;28;96767;-30
2022/10/22 08:37:16;;;;;;;1.65;1.00;;;;;;;15.01;88.96;101251.44;5031844;27;97822;-30
2022/10/22 08:39:42;;;;;;;5.55;1.08;;;;;;;15.06;89.27;101251.13;5030613;28;101611;-30
2022/10/22 08:42:28;;;;;;;6.10;1.15;;;;;;;15.11;89.02;101270.78;5032129;27;96559;-29
2022/10/22 08:45:11;;;;;;;10.48;1.48;;;;;;;15.18;89.08;101268.44;5031908;27;96657;-29
2022/10/22 08:48:06;;;;;;;5.03;1.05;;;;;;;15.22;88.58;101272.69;5029913;28;101073;-30
2022/10/22 08:50:39;;;;;;;5.30;0.98;;;;;;;15.23;88.83;101268.97;5022341;28;101225;-29
2022/10/22 08:53:11;;;;;;;5.45;1.05;;;;;;;15.29;88.52;101280.28;5030142;28;96736;-28
2022/10/22 08:55:37;;;;;;;3.45;1.13;;;;;;;15.37;88.61;101277.00;5030288;28;96660;-29
2022/10/22 08:58:24;;;;;;;8.23;1.60;;;;;;;15.48;88.45;101284.38;5029996;28;100737;-29
2022/10/22 09:01:06;;;;;;;7.65;1.00;;;;;;;15.57;88.64;101285.56;5030386;28;100643;-30
2022/10/22 09:03:48;;;;;;;12.25;1.55;;;;;;;15.67;88.22;101283.88;5030273;28;96766;-30
2022/10/22 09:06:25;;;;;;;2.95;1.45;;;;;;;15.67;87.63;101283.88;5030520;28;96713;-29
2022/10/22 09:08:52;;;;;;;6.70;1.60;;;;;;;15.67;87.52;101287.47;5030063;28;100951;-29
2022/10/22 09:11:36;;;;;;;6.97;1.00;;;;;;;15.82;87.60;101303.69;5030108;28;101457;-30
2022/10/22 09:14:03;;;;;;;6.93;1.25;;;;;;;15.88;87.45;101309.56;5028160;28;97257;-30
2022/10/22 09:17:18;;;;;;;3.10;0.90;;;;;;;15.88;87.01;101303.25;5030010;28;97185;-30
2022/10/22 09:20:09;;;;;;;4.45;1.30;;;;;;;15.88;87.36;101314.19;5027048;28;98011;-32
2022/10/22 09:22:45;;;;;;;3.63;1.20;;;;;;;15.88;87.43;101308.72;5030053;28;100986;-30
2022/10/22 09:25:16;;;;;;;4.32;0.98;;;;;;;15.94;87.24;101313.69;5029840;28;96739;-29
2022/10/22 09:27:41;;;;;;;4.68;1.42;;;;;;;15.94;87.55;101310.97;5031367;27;96899;-29
2022/10/22 09:30:16;;;;;;;7.20;1.52;;;;;;;15.99;87.54;101324.25;5034259;27;97993;-29
2022/10/22 09:32:42;;;;;;;6.60;1.17;;;;;;;15.98;87.34;101319.81;5033720;28;100876;-30
2022/10/22 09:35:12;;;;;;;7.43;1.35;;;;;;;16.11;87.51;101328.78;5034928;28;96466;-29
2022/10/22 09:37:50;;;;;;;5.45;1.40;;;;;;;16.15;87.34;101330.28;5034471;27;96904;-30
2022/10/22 09:40:16;;;;;;;7.25;1.58;;;;;;;16.16;86.81;101328.44;5033894;27;99262;-31
2022/10/22 09:42:43;;;;;;;3.05;1.20;;;;;;;16.17;86.78;101327.47;5032974;28;100934;-29
2022/10/22 09:45:22;;;;;;;2.00;0.70;;;;;;;16.21;86.19;101339.88;5033092;27;96650;-29
2022/10/22 09:47:48;;;;;;;6.40;1.45;;;;;;;16.28;85.60;101339.31;5033132;27;96986;-29
2022/10/22 09:50:39;;;;;;;12.10;1.42;;;;;;;16.36;85.96;101341.44;5033617;27;99297;-30
2022/10/22 09:53:11;;;;;;;7.60;1.30;;;;;;;16.43;85.68;101344.56;5016169;28;100462;-29
2022/10/22 09:55:39;;;;;;;9.90;1.20;;;;;;;16.49;85.92;101347.69;5034376;27;96482;-29
2022/10/22 09:58:10;;;;;;;5.32;0.90;;;;;;;16.61;84.43;101347.69;5034820;28;96774;-30
2022/10/22 10:00:42;;;;;;;3.65;0.70;;;;;;;16.63;84.93;101357.53;5033913;27;99857;-30
2022/10/22 10:03:16;;;;;;;8.63;0.90;;;;;;;16.67;84.59;101352.69;5034388;27;97910;-32
2022/10/22 10:05:42;;;;;;;8.48;1.63;;;;;;;16.72;84.50;101355.94;5032322;28;96872;-31
2022/10/22 10:08:13;;;;;;;6.18;1.30;;;;;;;16.93;84.32;101356.13;5034057;27;96808;-30
2022/10/22 10:10:49;;;;;;;5.55;1.52;;;;;;;17.19;83.10;101357.63;5032688;28;101027;-29
2022/10/22 10:13:34;;;;;;;8.57;1.40;;;;;;;17.48;82.77;101357.09;5032275;28;100973;-30
2022/10/22 10:16:10;;;;;;;15.45;1.15;;;;;;;17.60;81.74;101360.69;5032550;28;96599;-30
2022/10/22 10:18:50;;;;;;;5.13;0.85;;;;;;;17.79;80.57;101369.09;5032906;28;96672;-29
2022/10/22 10:21:38;;;;;;;6.05;1.40;;;;;;;17.88;79.78;101372.97;5032540;28;100517;-30
2022/10/22 10:24:27;;;;;;;5.78;0.93;;;;;;;18.01;78.41;101381.03;5032470;28;100934;-29
2022/10/22 10:27:09;;;;;;;3.95;1.30;;;;;;;18.25;78.87;101389.03;5032591;28;96757;-30
2022/10/22 10:29:59;;;;;;;7.18;0.95;;;;;;;18.54;76.28;101389.25;5032529;28;97114;-30
2022/10/22 10:32:49;;;;;;;6.05;1.20;;;;;;;18.51;78.31;101394.16;5031900;28;100724;-29
2022/10/22 10:35:20;;;;;;;8.27;1.10;;;;;;;18.57;77.66;101394.50;5033687;28;99201;-29
2022/10/22 10:37:49;;;;;;;9.88;1.75;;;;;;;18.71;76.89;101389.69;5032533;28;96544;-29
2022/10/22 10:40:22;;;;;;;6.00;1.58;;;;;;;18.62;77.62;101403.22;5032038;27;96819;-31
2022/10/22 10:42:59;;;;;;;10.60;1.40;;;;;;;18.45;77.76;101412.91;5033997;28;97569;-30
2022/10/22 10:45:50;;;;;;;10.95;1.73;;;;;;;18.15;74.50;101416.38;5032046;28;100954;-29
2022/10/22 10:48:39;;;;;;;8.10;1.58;;;;;;;18.09;76.82;101408.69;5033080;27;96787;-30
2022/10/22 10:51:23;;;;;;;8.65;1.58;;;;;;;18.08;77.51;101415.16;5032698;28;96736;-30
2022/10/22 10:53:57;;;;;;;7.93;1.20;;;;;;;18.13;77.81;101414.78;5031868;28;98519;-29
2022/10/22 10:56:34;;;;;;;5.95;1.35;;;;;;;18.13;76.92;101412.88;5033522;27;97771;-30
2022/10/22 10:59:15;;;;;;;7.22;1.17;;;;;;;18.45;75.44;101428.50;5031279;28;97202;-30
2022/10/22 11:02:25;;;;;;;13.40;2.17;;;;;;;18.68;74.98;101410.03;5031922;28;97349;-29
2022/10/22 11:05:13;;;;;;;12.07;1.33;;;;;;;18.72;74.56;101421.63;5031793;28;100910;-29
2022/10/22 11:07:43;;;;;;;7.22;1.58;;;;;;;18.45;75.57;101421.13;5031801;28;100938;-30
2022/10/22 11:10:38;;;;;;;9.07;1.33;;;;;;;18.20;75.69;101419.59;5030780;28;97223;-32
2022/10/22 11:13:21;;;;;;;11.65;1.48;;;;;;;17.98;75.62;101422.41;5009406;27;97059;-31
2022/10/22 11:15:59;;;;;;;1.80;1.00;;;;;;;17.78;75.59;101424.03;5031652;28;99432;-30
2022/10/22 11:18:35;;;;;;;7.88;1.90;;;;;;;17.76;75.00;101426.06;5031278;28;101028;-30
2022/10/22 11:21:18;;;;;;;5.88;1.02;;;;;;;17.65;75.41;101424.19;5032895;27;96665;-29
2022/10/22 11:23:49;;;;;;;9.30;1.42;;;;;;;17.75;76.75;101418.81;5032903;27;96829;-32
2022/10/22 11:26:26;;;;;;;11.13;1.55;;;;;;;17.77;75.69;101433.25;5030805;28;100659;-30
2022/10/22 11:28:52;;;;;;;10.88;1.30;;;;;;;17.76;76.24;101435.13;5031491;28;101185;-30
2022/10/22 11:31:19;;;;;;;5.25;1.17;;;;;;;17.80;75.60;101430.25;5032824;27;96676;-29
2022/10/22 11:33:44;;;;;;;10.82;1.25;;;;;;;17.79;76.79;101436.75;5031631;28;96800;-30
2022/10/22 11:36:11;;;;;;;6.57;1.30;;;;;;;17.70;76.35;101427.41;5032502;28;99698;-29